Time;durP1;ratioP1;P1;durP2;ratioP2;P2;SDS_P1;SDS_P2;PMS_P1;PMS_P2;Temp;Humidity;BMP_temperature;BMP_pressure;BME280_temperature;BME280_humidity;BME280_pressure;Samples;Min_cycle;Max_cycle;Signal;HPM_P1;HPM_P2
2023/09/26 00:02:55;;;;;;;11.75;8.32;;;23.50;78.80;;;;;;7652394;22;81255;-59
2023/09/26 00:05:55;;;;;;;11.48;8.10;;;23.50;79.00;;;;;;7680443;22;80529;-69
2023/09/26 00:08:56;;;;;;;12.48;8.38;;;23.40;78.80;;;;;;7680668;22;80763;-69
2023/09/26 00:11:57;;;;;;;11.77;8.18;;;23.40;78.80;;;;;;7680296;22;80608;-67
2023/09/26 00:14:58;;;;;;;12.25;8.77;;;23.40;78.70;;;;;;7680167;22;79919;-68
2023/09/26 00:17:58;;;;;;;10.18;7.88;;;23.40;78.70;;;;;;7652112;22;83489;-67
2023/09/26 00:20:59;;;;;;;13.68;8.98;;;23.50;78.80;;;;;;7680914;22;80439;-67
2023/09/26 00:23:59;;;;;;;11.90;8.05;;;23.50;79.00;;;;;;7680775;22;80476;-56
2023/09/26 00:27:00;;;;;;;12.75;9.13;;;23.50;79.00;;;;;;7679024;22;81214;-56
2023/09/26 00:30:00;;;;;;;17.98;8.73;;;23.50;79.00;;;;;;7679332;22;80496;-56
2023/09/26 00:33:01;;;;;;;14.23;9.75;;;23.50;79.00;;;;;;7678775;22;80200;-58
2023/09/26 00:36:03;;;;;;;17.33;9.75;;;23.50;78.90;;;;;;7678634;22;79966;-55
2023/09/26 00:39:04;;;;;;;14.88;8.30;;;23.50;79.00;;;;;;7651994;22;83014;-56
2023/09/26 00:42:04;;;;;;;16.58;8.18;;;23.50;79.00;;;;;;7678795;22;79973;-56
2023/09/26 00:45:05;;;;;;;15.30;8.40;;;23.50;79.80;;;;;;7679234;22;81027;-56
2023/09/26 00:48:06;;;;;;;14.82;9.23;;;23.50;79.10;;;;;;7679707;22;81232;-56
2023/09/26 00:51:07;;;;;;;12.30;8.32;;;23.50;79.20;;;;;;7651297;22;83434;-56
2023/09/26 00:54:09;;;;;;;14.02;8.82;;;23.50;79.20;;;;;;7678459;22;79996;-53
2023/09/26 00:57:09;;;;;;;19.00;9.60;;;23.40;79.10;;;;;;7680015;22;80414;-55
2023/09/26 01:00:12;;;;;;;14.35;8.85;;;23.50;79.00;;;;;;7680788;22;80942;-54
2023/09/26 01:03:13;;;;;;;12.77;9.52;;;23.50;79.10;;;;;;7628314;22;80594;-57
2023/09/26 01:06:13;;;;;;;17.83;9.15;;;23.40;79.00;;;;;;7680577;22;80822;-56
2023/09/26 01:09:14;;;;;;;14.10;9.05;;;23.40;79.10;;;;;;7681150;22;80820;-56
2023/09/26 01:12:14;;;;;;;13.80;9.82;;;23.50;79.10;;;;;;7653845;22;81805;-57
2023/09/26 01:15:16;;;;;;;14.60;8.82;;;23.50;79.00;;;;;;7648575;22;83385;-57
2023/09/26 01:18:17;;;;;;;14.20;9.63;;;23.50;79.10;;;;;;7649321;22;82037;-56
2023/09/26 01:21:17;;;;;;;17.23;9.88;;;23.40;78.80;;;;;;7675490;22;80396;-57
2023/09/26 01:24:18;;;;;;;19.25;10.10;;;23.40;79.10;;;;;;7676710;22;80418;-56
2023/09/26 01:27:19;;;;;;;14.90;9.40;;;23.50;79.20;;;;;;7672807;22;83076;-56
2023/09/26 01:30:20;;;;;;;18.58;9.85;;;23.40;79.00;;;;;;7678158;22;81548;-54
2023/09/26 01:33:21;;;;;;;15.93;10.07;;;23.50;79.30;;;;;;7679922;22;80346;-56
2023/09/26 01:36:26;;;;;;;17.75;10.13;;;23.40;79.20;;;;;;7676522;22;82910;-58
2023/09/26 01:39:27;;;;;;;13.75;9.23;;;23.50;79.30;;;;;;7674027;22;83192;-56
2023/09/26 01:42:27;;;;;;;13.65;9.95;;;23.40;79.20;;;;;;7652641;22;86123;-55
2023/09/26 01:45:28;;;;;;;13.75;9.40;;;23.50;79.20;;;;;;7652616;22;83251;-55
2023/09/26 01:48:28;;;;;;;16.45;9.10;;;23.50;79.40;;;;;;7680103;22;80254;-58
2023/09/26 01:51:29;;;;;;;18.05;9.60;;;23.50;79.20;;;;;;7680573;22;81435;-56
2023/09/26 01:54:29;;;;;;;16.98;10.10;;;23.40;79.30;;;;;;7676135;22;80809;-56
2023/09/26 01:57:30;;;;;;;16.45;9.65;;;23.50;79.30;;;;;;7675504;22;84293;-54
2023/09/26 02:00:30;;;;;;;14.48;9.90;;;23.40;79.30;;;;;;7652455;22;86085;-54
2023/09/26 02:03:31;;;;;;;16.05;9.45;;;23.40;79.30;;;;;;7652482;22;83026;-52
2023/09/26 02:06:31;;;;;;;15.65;9.35;;;23.40;79.30;;;;;;7679265;22;80841;-54
2023/09/26 02:09:32;;;;;;;17.90;9.75;;;23.40;79.10;;;;;;7679855;22;80368;-55
2023/09/26 02:12:32;;;;;;;15.38;10.05;;;23.40;79.20;;;;;;7653285;22;83523;-54
2023/09/26 02:15:33;;;;;;;16.00;9.90;;;23.40;79.20;;;;;;7649090;22;83230;-55
2023/09/26 02:18:33;;;;;;;12.32;8.80;;;23.50;79.20;;;;;;7653047;22;86016;-56
2023/09/26 02:21:34;;;;;;;14.77;9.88;;;23.40;79.40;;;;;;7674561;22;82747;-54
2023/09/26 02:24:34;;;;;;;14.30;9.07;;;23.40;79.40;;;;;;7678667;22;83179;-56
2023/09/26 02:27:35;;;;;;;11.57;9.18;;;23.40;79.40;;;;;;7680128;22;80994;-55
2023/09/26 02:30:35;;;;;;;14.52;9.52;;;23.40;79.00;;;;;;7678236;22;83226;-60
2023/09/26 02:33:36;;;;;;;13.38;9.43;;;23.40;79.40;;;;;;7679053;22;81871;-60
2023/09/26 02:36:37;;;;;;;11.90;9.05;;;23.40;79.30;;;;;;7679772;22;82020;-60
2023/09/26 02:39:37;;;;;;;11.50;8.38;;;23.40;79.10;;;;;;7680684;22;81152;-60
2023/09/26 02:42:38;;;;;;;10.90;8.52;;;23.40;79.30;;;;;;7679478;22;80251;-59
2023/09/26 02:45:38;;;;;;;13.35;9.13;;;23.40;79.60;;;;;;7679298;22;81465;-60
2023/09/26 02:48:40;;;;;;;12.30;7.95;;;23.40;79.40;;;;;;7679971;22;82250;-66
2023/09/26 02:51:40;;;;;;;14.57;9.10;;;23.40;79.50;;;;;;7681301;22;80909;-67
2023/09/26 02:54:41;;;;;;;13.20;7.97;;;23.40;79.20;;;;;;7681254;22;80457;-67
2023/09/26 02:57:41;;;;;;;13.35;8.43;;;23.40;79.30;;;;;;7681467;22;80511;-66
2023/09/26 03:00:42;;;;;;;13.68;8.18;;;23.40;79.30;;;;;;7677097;22;82905;-66
2023/09/26 03:03:42;;;;;;;14.05;9.20;;;23.40;79.00;;;;;;7680591;22;81028;-70
2023/09/26 03:06:43;;;;;;;13.95;8.70;;;23.40;79.00;;;;;;7676883;22;81243;-65
2023/09/26 03:09:43;;;;;;;13.15;8.40;;;23.50;79.30;;;;;;7681093;22;80536;-71
2023/09/26 03:12:44;;;;;;;11.68;7.88;;;23.50;78.90;;;;;;7681303;22;80833;-67
2023/09/26 03:15:45;;;;;;;11.75;7.78;;;23.40;78.90;;;;;;7682159;22;81288;-66
2023/09/26 03:18:46;;;;;;;10.73;7.78;;;23.40;79.00;;;;;;7679632;22;80986;-66
2023/09/26 03:21:46;;;;;;;16.52;9.07;;;23.40;78.90;;;;;;7679328;22;80389;-69
2023/09/26 03:24:47;;;;;;;11.48;8.45;;;23.40;78.80;;;;;;7680349;22;81309;-52
2023/09/26 03:27:47;;;;;;;11.15;8.40;;;23.40;78.90;;;;;;7652257;22;82426;-55
2023/09/26 03:30:48;;;;;;;12.00;7.78;;;23.40;78.80;;;;;;7647135;22;80955;-51
2023/09/26 03:33:49;;;;;;;9.45;7.65;;;23.40;79.00;;;;;;7679569;22;81570;-56
2023/09/26 03:36:50;;;;;;;10.07;7.63;;;23.40;78.80;;;;;;7674413;22;81379;-52
2023/09/26 03:39:50;;;;;;;10.30;7.88;;;23.50;78.70;;;;;;7675865;22;80746;-56
2023/09/26 03:42:51;;;;;;;14.25;7.90;;;23.50;78.60;;;;;;7650280;22;82621;-50
2023/09/26 03:45:51;;;;;;;13.02;8.38;;;23.50;78.10;;;;;;7678897;22;80419;-57
2023/09/26 03:48:52;;;;;;;15.43;7.93;;;23.50;78.10;;;;;;7678191;22;80682;-54
2023/09/26 03:51:53;;;;;;;12.57;7.28;;;23.50;78.40;;;;;;7678246;22;81051;-53
2023/09/26 03:54:54;;;;;;;12.13;8.07;;;23.60;79.10;;;;;;7651188;22;81027;-57
2023/09/26 03:57:54;;;;;;;8.05;6.25;;;23.60;79.60;;;;;;7678107;22;80227;-57
2023/09/26 04:00:55;;;;;;;9.80;6.80;;;23.70;79.00;;;;;;7678620;22;80840;-58
2023/09/26 04:03:55;;;;;;;12.13;7.63;;;23.70;79.90;;;;;;7678634;22;80600;-57
2023/09/26 04:06:56;;;;;;;11.35;7.22;;;23.70;80.20;;;;;;7677757;22;80291;-56
2023/09/26 04:09:56;;;;;;;11.25;8.02;;;23.70;79.50;;;;;;7679525;22;80787;-58
2023/09/26 04:12:57;;;;;;;11.73;7.22;;;23.70;79.40;;;;;;7678620;22;80378;-58
2023/09/26 04:15:57;;;;;;;13.40;7.55;;;23.70;79.80;;;;;;7677782;22;80349;-55
2023/09/26 04:18:58;;;;;;;22.98;7.25;;;23.70;80.20;;;;;;7650381;22;82978;-55
2023/09/26 04:21:58;;;;;;;12.40;7.55;;;23.70;80.50;;;;;;7677687;22;80773;-64
2023/09/26 04:24:59;;;;;;;21.10;8.15;;;23.70;79.80;;;;;;7678806;22;80759;-59
2023/09/26 04:27:59;;;;;;;18.58;8.15;;;23.70;79.60;;;;;;7678740;22;80914;-57
2023/09/26 04:31:00;;;;;;;19.80;7.20;;;23.70;79.90;;;;;;7663619;22;81562;-57
2023/09/26 04:34:00;;;;;;;12.57;7.55;;;23.60;80.00;;;;;;7673054;22;81260;-57
2023/09/26 04:37:01;;;;;;;11.13;7.10;;;23.60;79.50;;;;;;7673876;22;80770;-57
2023/09/26 04:40:06;;;;;;;39.42;8.75;;;23.60;79.50;;;;;;7673798;22;80300;-60
2023/09/26 04:43:08;;;;;;;14.05;8.25;;;23.50;79.60;;;;;;7672742;22;80585;-61
2023/09/26 04:46:09;;;;;;;10.73;8.05;;;23.50;80.00;;;;;;7672806;22;80808;-60
2023/09/26 04:49:10;;;;;;;14.88;8.18;;;23.50;79.90;;;;;;7675635;22;80282;-61
2023/09/26 04:52:10;;;;;;;14.57;7.93;;;23.50;79.60;;;;;;7676358;22;80868;-61
2023/09/26 04:55:11;;;;;;;14.35;7.57;;;23.50;79.60;;;;;;7676941;22;81449;-61
2023/09/26 04:58:12;;;;;;;11.05;7.50;;;23.40;79.50;;;;;;7680529;22;80288;-60
2023/09/26 05:01:12;;;;;;;10.68;7.47;;;23.40;79.60;;;;;;7681314;22;80815;-61
2023/09/26 05:04:13;;;;;;;13.48;8.43;;;23.40;79.60;;;;;;7680788;22;80422;-61
2023/09/26 05:07:13;;;;;;;15.25;8.45;;;23.40;79.50;;;;;;7653453;22;84168;-60
2023/09/26 05:10:14;;;;;;;11.82;7.60;;;23.40;79.50;;;;;;7680942;22;81206;-60
2023/09/26 05:13:14;;;;;;;10.48;7.78;;;23.40;79.30;;;;;;7680176;22;80766;-60
2023/09/26 05:16:15;;;;;;;12.90;7.80;;;23.40;79.20;;;;;;7680232;22;81131;-57
2023/09/26 05:19:15;;;;;;;13.63;7.53;;;23.40;79.60;;;;;;7681410;22;80294;-61
2023/09/26 05:22:17;;;;;;;12.75;7.75;;;23.40;79.50;;;;;;7680888;22;80402;-61
2023/09/26 05:25:17;;;;;;;11.50;7.50;;;23.40;79.20;;;;;;7679609;22;80043;-60
2023/09/26 05:28:18;;;;;;;10.35;7.20;;;23.40;79.20;;;;;;7679732;22;80487;-60
2023/09/26 05:31:18;;;;;;;7.93;7.10;;;23.40;79.50;;;;;;7680311;22;80800;-60
2023/09/26 05:34:19;;;;;;;10.23;7.50;;;23.40;79.10;;;;;;7679901;22;80338;-61
2023/09/26 05:37:19;;;;;;;10.70;7.00;;;23.40;79.10;;;;;;7680614;22;80498;-57
2023/09/26 05:40:20;;;;;;;10.15;7.15;;;23.30;79.20;;;;;;7675366;22;80470;-57
2023/09/26 05:43:20;;;;;;;10.95;8.13;;;23.40;78.90;;;;;;7635152;22;81633;-58
2023/09/26 05:46:21;;;;;;;9.60;7.20;;;23.40;79.10;;;;;;7672356;22;80539;-58
2023/09/26 05:49:22;;;;;;;9.32;7.03;;;23.40;79.00;;;;;;7675558;22;80819;-57
2023/09/26 05:52:22;;;;;;;10.25;7.80;;;23.40;78.90;;;;;;7676894;22;80438;-61
2023/09/26 05:55:23;;;;;;;11.60;7.60;;;23.40;78.90;;;;;;7678719;22;80289;-53
2023/09/26 05:58:23;;;;;;;10.13;7.15;;;23.40;78.70;;;;;;7678213;22;80340;-53
2023/09/26 06:01:24;;;;;;;8.57;6.43;;;23.40;78.80;;;;;;7652122;22;80982;-53
2023/09/26 06:04:24;;;;;;;10.18;7.53;;;23.40;78.70;;;;;;7679042;22;80519;-53
2023/09/26 06:07:27;;;;;;;9.55;6.88;;;23.40;79.10;;;;;;7679318;22;81470;-49
2023/09/26 06:10:27;;;;;;;10.18;7.20;;;23.40;78.90;;;;;;7679341;22;80562;-53
2023/09/26 06:13:28;;;;;;;9.38;7.22;;;23.40;78.90;;;;;;7678920;22;80656;-54
2023/09/26 06:16:28;;;;;;;8.98;7.25;;;23.40;79.20;;;;;;7679409;22;80833;-56
2023/09/26 06:19:29;;;;;;;10.80;7.40;;;23.40;79.10;;;;;;7679098;22;80484;-53
2023/09/26 06:22:29;;;;;;;8.77;6.80;;;23.40;79.10;;;;;;7679110;22;80456;-55
2023/09/26 06:25:30;;;;;;;7.53;6.18;;;23.40;78.90;;;;;;7680261;22;81121;-54
2023/09/26 06:28:32;;;;;;;8.38;6.72;;;23.40;79.10;;;;;;7678155;22;80378;-59
2023/09/26 06:31:32;;;;;;;9.02;7.30;;;23.40;79.30;;;;;;7678930;22;80842;-56
2023/09/26 06:34:34;;;;;;;8.20;6.63;;;23.40;79.10;;;;;;7678734;22;80265;-56
2023/09/26 06:37:34;;;;;;;10.95;7.18;;;23.40;79.30;;;;;;7677817;22;80141;-55
2023/09/26 06:40:35;;;;;;;7.25;6.38;;;23.40;79.10;;;;;;7677747;22;81396;-55
2023/09/26 06:43:36;;;;;;;8.30;6.88;;;23.40;79.20;;;;;;7677391;22;81151;-53
2023/09/26 06:46:36;;;;;;;7.32;6.18;;;23.50;79.30;;;;;;7678902;22;80593;-55
2023/09/26 06:49:37;;;;;;;7.78;6.22;;;23.50;79.20;;;;;;7678095;22;80458;-59
2023/09/26 06:52:37;;;;;;;9.27;6.65;;;23.50;79.00;;;;;;7677802;22;80758;-60
2023/09/26 06:55:39;;;;;;;8.13;6.60;;;23.50;79.10;;;;;;7680045;22;80810;-59
2023/09/26 06:58:40;;;;;;;9.73;7.18;;;23.50;79.10;;;;;;7679011;22;80342;-60
2023/09/26 07:01:40;;;;;;;9.02;7.15;;;23.50;79.10;;;;;;7678857;22;80180;-57
2023/09/26 07:04:41;;;;;;;10.88;6.82;;;23.50;79.10;;;;;;7678362;22;80267;-59
2023/09/26 07:07:42;;;;;;;8.52;6.43;;;23.60;79.30;;;;;;7679271;22;80994;-61
2023/09/26 07:10:42;;;;;;;7.80;6.15;;;23.60;79.10;;;;;;7678775;22;80858;-58
2023/09/26 07:13:43;;;;;;;12.20;7.57;;;23.60;78.80;;;;;;7651235;22;81257;-58
2023/09/26 07:16:45;;;;;;;8.77;6.82;;;23.60;78.70;;;;;;7650380;22;80369;-58
2023/09/26 07:19:45;;;;;;;8.27;6.82;;;23.60;78.70;;;;;;7678744;22;80975;-58
2023/09/26 07:22:46;;;;;;;7.68;6.30;;;23.60;78.70;;;;;;7677858;22;80527;-58
2023/09/26 07:25:47;;;;;;;9.25;6.60;;;23.70;78.70;;;;;;7679099;22;80866;-54
2023/09/26 07:28:47;;;;;;;8.40;6.60;;;23.70;78.80;;;;;;7678558;22;80531;-56
2023/09/26 07:31:48;;;;;;;8.95;6.55;;;23.70;78.90;;;;;;7677992;22;80836;-56
2023/09/26 07:34:48;;;;;;;7.18;5.93;;;23.70;78.70;;;;;;7677529;22;80829;-56
2023/09/26 07:37:49;;;;;;;6.78;5.75;;;23.80;78.70;;;;;;7677526;22;80554;-55
2023/09/26 07:40:49;;;;;;;7.93;6.45;;;23.80;78.70;;;;;;7678598;22;80943;-53
2023/09/26 07:43:50;;;;;;;7.80;6.55;;;23.80;78.40;;;;;;7678403;22;80939;-51
2023/09/26 07:46:51;;;;;;;7.63;6.15;;;23.90;78.80;;;;;;7678180;22;80256;-55
2023/09/26 07:49:51;;;;;;;9.07;6.57;;;23.90;78.50;;;;;;7651170;22;83154;-56
2023/09/26 07:52:52;;;;;;;7.20;6.13;;;23.90;78.50;;;;;;7678958;22;80605;-56
2023/09/26 07:55:52;;;;;;;7.63;6.00;;;23.90;78.10;;;;;;7679136;22;81060;-56
2023/09/26 07:58:53;;;;;;;7.97;6.43;;;23.90;78.20;;;;;;7678412;22;79973;-56
2023/09/26 08:01:54;;;;;;;9.68;6.40;;;23.90;78.30;;;;;;7678474;22;80709;-52
2023/09/26 08:04:54;;;;;;;7.60;6.10;;;23.90;77.70;;;;;;7679068;22;80886;-56
2023/09/26 08:07:55;;;;;;;9.88;6.90;;;23.90;78.00;;;;;;7679823;22;80516;-56
2023/09/26 08:10:56;;;;;;;7.90;6.30;;;24.00;77.90;;;;;;7681109;22;81063;-56
2023/09/26 08:13:57;;;;;;;8.02;5.93;;;23.90;77.90;;;;;;7679812;22;80618;-57
2023/09/26 08:16:58;;;;;;;7.75;6.32;;;24.00;77.80;;;;;;7678829;22;80225;-55
2023/09/26 08:19:58;;;;;;;9.93;6.10;;;24.00;77.60;;;;;;7653829;22;80348;-56
2023/09/26 08:22:59;;;;;;;7.43;6.47;;;24.00;77.60;;;;;;7678771;22;87873;-59
2023/09/26 08:26:00;;;;;;;8.23;6.13;;;24.10;77.80;;;;;;7679254;22;80329;-59
2023/09/26 08:29:00;;;;;;;8.32;6.50;;;24.10;77.80;;;;;;7679129;22;80997;-59
2023/09/26 08:32:01;;;;;;;8.57;6.40;;;24.10;77.50;;;;;;7679659;22;80394;-60
2023/09/26 08:35:01;;;;;;;11.98;6.55;;;24.10;77.50;;;;;;7680216;22;80716;-60
2023/09/26 08:38:02;;;;;;;7.05;6.22;;;24.10;77.60;;;;;;7677716;22;80732;-53
2023/09/26 08:41:02;;;;;;;9.02;6.10;;;24.20;77.90;;;;;;7679434;22;81020;-61
2023/09/26 08:44:03;;;;;;;6.38;5.78;;;24.20;77.30;;;;;;7679082;22;80372;-60
2023/09/26 08:47:03;;;;;;;6.45;5.70;;;24.20;77.80;;;;;;7679178;22;80307;-61
2023/09/26 08:50:04;;;;;;;8.07;5.88;;;24.30;77.20;;;;;;7679983;22;80593;-60
2023/09/26 08:53:04;;;;;;;8.45;5.95;;;24.30;77.50;;;;;;7679397;22;80596;-60
2023/09/26 08:56:05;;;;;;;11.20;6.03;;;24.30;78.00;;;;;;7678560;22;81687;-61
2023/09/26 08:59:05;;;;;;;6.10;5.40;;;24.30;77.20;;;;;;7679232;22;80282;-60
2023/09/26 09:02:06;;;;;;;8.07;5.97;;;24.40;77.70;;;;;;7679441;22;80942;-61
2023/09/26 09:05:07;;;;;;;7.50;5.57;;;24.40;77.90;;;;;;7678177;22;81807;-61
2023/09/26 09:08:08;;;;;;;10.27;6.18;;;24.40;77.50;;;;;;7678972;22;80454;-61
2023/09/26 09:11:08;;;;;;;6.97;5.47;;;24.40;77.90;;;;;;7677657;22;80259;-61
2023/09/26 09:14:09;;;;;;;7.90;5.88;;;24.40;77.70;;;;;;7679457;22;80231;-59
2023/09/26 09:17:09;;;;;;;6.63;5.30;;;24.50;77.90;;;;;;7678438;22;80472;-53
2023/09/26 09:20:10;;;;;;;7.90;5.75;;;24.50;77.90;;;;;;7678810;22;80780;-54
2023/09/26 09:23:10;;;;;;;7.47;5.90;;;24.60;77.90;;;;;;7677936;22;80583;-53
2023/09/26 09:26:12;;;;;;;6.95;5.32;;;24.60;77.70;;;;;;7679044;22;80472;-51
2023/09/26 09:29:12;;;;;;;6.07;5.45;;;24.60;77.20;;;;;;7678482;22;80902;-54
2023/09/26 09:32:13;;;;;;;6.20;5.60;;;24.60;78.10;;;;;;7679160;22;80444;-60
2023/09/26 09:35:13;;;;;;;6.47;5.35;;;24.60;77.90;;;;;;7679294;22;80436;-55
2023/09/26 09:38:14;;;;;;;6.80;5.80;;;24.70;77.90;;;;;;7679196;22;80916;-55
2023/09/26 09:41:14;;;;;;;14.30;5.70;;;24.70;77.50;;;;;;7678926;22;80424;-55
2023/09/26 09:44:15;;;;;;;8.68;5.10;;;24.70;77.40;;;;;;7678977;22;80419;-56
2023/09/26 09:47:16;;;;;;;8.55;5.40;;;24.70;77.60;;;;;;7650970;22;83865;-55
2023/09/26 09:50:17;;;;;;;6.45;5.43;;;24.70;76.90;;;;;;7679119;22;80513;-56
2023/09/26 09:53:17;;;;;;;7.22;5.35;;;24.80;77.30;;;;;;7679235;22;80474;-59
2023/09/26 09:56:19;;;;;;;6.00;5.20;;;24.80;77.40;;;;;;7680122;22;80211;-60
2023/09/26 09:59:21;;;;;;;9.52;5.13;;;24.80;77.90;;;;;;7678259;22;80367;-61
2023/09/26 10:02:22;;;;;;;6.53;5.50;;;24.80;77.50;;;;;;7679410;22;81290;-61
2023/09/26 10:05:23;;;;;;;6.65;5.47;;;24.90;77.60;;;;;;7678357;22;80357;-60
2023/09/26 10:08:23;;;;;;;6.20;5.60;;;24.90;77.70;;;;;;7651319;22;80753;-57
2023/09/26 10:11:24;;;;;;;5.70;5.03;;;24.90;77.40;;;;;;7679394;22;80662;-60
2023/09/26 10:14:24;;;;;;;6.85;5.30;;;24.90;77.90;;;;;;7678879;22;80272;-59
2023/09/26 10:17:25;;;;;;;5.80;5.20;;;24.90;77.90;;;;;;7679478;22;81582;-60
2023/09/26 10:20:25;;;;;;;7.15;5.45;;;24.90;77.80;;;;;;7678720;22;80628;-60
2023/09/26 10:23:26;;;;;;;8.18;5.45;;;24.90;77.40;;;;;;7652350;22;80299;-60
2023/09/26 10:26:26;;;;;;;7.40;5.63;;;25.00;77.10;;;;;;7678634;22;80435;-61
2023/09/26 10:29:27;;;;;;;7.25;5.70;;;25.00;77.30;;;;;;7677474;22;80395;-59
2023/09/26 10:32:27;;;;;;;6.07;4.93;;;25.00;77.20;;;;;;7652882;22;82110;-59
2023/09/26 10:35:30;;;;;;;8.15;5.30;;;25.00;78.20;;;;;;7680301;22;80486;-59
2023/09/26 10:38:31;;;;;;;8.70;5.65;;;25.10;78.30;;;;;;7680028;22;80393;-59
2023/09/26 10:41:31;;;;;;;7.28;5.57;;;25.10;77.10;;;;;;7679612;22;81044;-57
2023/09/26 10:44:32;;;;;;;9.82;5.15;;;25.10;76.90;;;;;;7679627;22;81078;-58
2023/09/26 10:47:36;;;;;;;6.68;4.90;;;25.10;77.20;;;;;;7680317;22;80292;-61
2023/09/26 10:50:37;;;;;;;6.40;5.32;;;25.10;77.60;;;;;;7679750;22;80425;-61
2023/09/26 10:53:37;;;;;;;7.20;5.57;;;25.10;77.30;;;;;;7678942;22;80345;-59
2023/09/26 10:56:38;;;;;;;8.60;5.43;;;25.10;77.20;;;;;;7679601;22;80932;-59
2023/09/26 10:59:39;;;;;;;5.78;5.28;;;25.10;76.90;;;;;;7678188;22;80358;-60
2023/09/26 11:02:39;;;;;;;8.15;5.28;;;25.20;78.00;;;;;;7652047;22;80409;-60
2023/09/26 11:05:40;;;;;;;6.55;5.43;;;25.20;77.00;;;;;;7679157;22;80377;-54
2023/09/26 11:08:40;;;;;;;6.55;5.18;;;25.10;77.50;;;;;;7678646;22;80291;-56
2023/09/26 11:11:41;;;;;;;6.38;5.30;;;25.20;77.50;;;;;;7678152;22;80388;-56
2023/09/26 11:14:41;;;;;;;6.22;5.13;;;25.20;77.70;;;;;;7678050;22;80343;-56
2023/09/26 11:17:42;;;;;;;10.00;4.80;;;25.20;77.40;;;;;;7651489;22;80533;-55
2023/09/26 11:20:42;;;;;;;6.07;5.05;;;25.20;77.20;;;;;;7679149;22;80525;-56
2023/09/26 11:23:45;;;;;;;7.05;5.00;;;25.20;77.70;;;;;;7652343;22;81558;-53
2023/09/26 11:26:45;;;;;;;7.18;5.75;;;25.20;77.50;;;;;;7679837;22;81792;-58
2023/09/26 11:29:46;;;;;;;5.82;4.75;;;25.30;77.30;;;;;;7679629;22;80502;-58
2023/09/26 11:32:49;;;;;;;6.60;5.60;;;25.30;78.40;;;;;;7678448;22;80717;-58
2023/09/26 11:35:49;;;;;;;5.95;5.30;;;25.30;77.90;;;;;;7678584;22;81408;-58
2023/09/26 11:38:50;;;;;;;6.25;5.32;;;25.30;77.80;;;;;;7677640;22;80579;-58
2023/09/26 11:41:50;;;;;;;6.38;5.43;;;25.30;78.00;;;;;;7652328;22;81081;-60
2023/09/26 11:44:51;;;;;;;7.43;5.57;;;25.30;77.40;;;;;;7679830;22;80347;-59
2023/09/26 11:47:52;;;;;;;6.97;5.20;;;25.40;78.00;;;;;;7678637;22;80190;-58
2023/09/26 11:50:52;;;;;;;5.40;4.82;;;25.40;77.90;;;;;;7680025;22;81054;-57
2023/09/26 11:53:53;;;;;;;8.52;4.97;;;25.30;77.50;;;;;;7678408;22;80380;-58
2023/09/26 11:56:55;;;;;;;5.55;4.75;;;25.40;77.70;;;;;;7679120;22;80271;-58
2023/09/26 11:59:55;;;;;;;5.57;4.80;;;25.40;76.60;;;;;;7679205;22;81601;-58
2023/09/26 12:02:56;;;;;;;5.40;4.55;;;25.40;77.30;;;;;;7678837;22;80643;-62
2023/09/26 12:05:56;;;;;;;6.10;5.47;;;25.40;76.70;;;;;;7678323;22;80613;-59
2023/09/26 12:08:57;;;;;;;7.65;5.47;;;25.40;76.80;;;;;;7678715;22;80564;-59
2023/09/26 12:11:58;;;;;;;5.63;4.57;;;25.40;76.90;;;;;;7650911;22;80390;-58
2023/09/26 12:14:58;;;;;;;6.50;4.97;;;25.40;76.90;;;;;;7678824;22;80544;-58
2023/09/26 12:17:59;;;;;;;5.35;4.82;;;25.50;76.30;;;;;;7650790;22;80426;-54
2023/09/26 12:21:00;;;;;;;7.20;5.40;;;25.50;76.60;;;;;;7676398;22;81355;-57
2023/09/26 12:24:01;;;;;;;5.32;4.75;;;25.50;76.60;;;;;;7678309;22;80241;-58
2023/09/26 12:27:02;;;;;;;7.55;5.13;;;25.50;76.10;;;;;;7678007;22;80358;-57
2023/09/26 12:30:02;;;;;;;5.28;4.70;;;25.50;76.70;;;;;;7651799;22;80927;-57
2023/09/26 12:33:03;;;;;;;5.55;5.05;;;25.50;76.20;;;;;;7678762;22;80325;-58
2023/09/26 12:36:04;;;;;;;6.65;5.35;;;25.50;76.50;;;;;;7678644;22;80561;-58
2023/09/26 12:39:04;;;;;;;5.68;4.72;;;25.50;76.50;;;;;;7678565;22;80421;-59
2023/09/26 12:42:05;;;;;;;5.40;4.57;;;25.50;76.00;;;;;;7677723;22;80415;-59
2023/09/26 12:45:06;;;;;;;6.18;5.28;;;25.50;75.90;;;;;;7678967;22;81883;-59
2023/09/26 12:48:07;;;;;;;6.43;5.00;;;25.50;76.60;;;;;;7651852;22;80772;-59
2023/09/26 12:51:08;;;;;;;6.18;4.88;;;25.50;76.20;;;;;;7677569;22;80235;-60
2023/09/26 12:54:08;;;;;;;6.53;5.25;;;25.50;75.70;;;;;;7679253;22;80434;-55
2023/09/26 12:57:09;;;;;;;5.20;4.70;;;25.50;75.40;;;;;;7678640;22;85677;-51
2023/09/26 13:00:10;;;;;;;7.40;4.97;;;25.50;75.90;;;;;;7679720;22;81615;-52
2023/09/26 13:03:10;;;;;;;6.07;5.15;;;25.60;76.40;;;;;;7678665;22;81252;-53
2023/09/26 13:06:11;;;;;;;6.20;5.40;;;25.50;75.60;;;;;;7678523;22;80321;-52
2023/09/26 13:09:12;;;;;;;6.18;4.93;;;25.50;75.70;;;;;;7679172;22;80681;-53
2023/09/26 13:12:13;;;;;;;10.90;6.20;;;25.60;76.50;;;;;;7678483;22;80418;-53
2023/09/26 13:15:14;;;;;;;5.72;5.05;;;25.50;75.50;;;;;;7678727;22;80394;-54
2023/09/26 13:18:14;;;;;;;6.13;5.15;;;25.50;75.30;;;;;;7652117;22;80625;-55
2023/09/26 13:21:15;;;;;;;8.02;5.45;;;25.50;75.60;;;;;;7678741;22;80740;-55
2023/09/26 13:24:15;;;;;;;7.10;4.97;;;25.50;75.50;;;;;;7679101;22;80723;-54
2023/09/26 13:27:16;;;;;;;6.97;5.50;;;25.50;75.70;;;;;;7679357;22;80434;-53
2023/09/26 13:30:17;;;;;;;6.38;5.55;;;25.50;75.30;;;;;;7679724;22;80579;-56
2023/09/26 13:33:18;;;;;;;6.05;5.07;;;25.50;75.10;;;;;;7679242;22;80518;-55
2023/09/26 13:36:18;;;;;;;7.50;5.35;;;25.50;75.20;;;;;;7651829;22;80852;-57
2023/09/26 13:39:19;;;;;;;5.38;4.88;;;25.50;75.50;;;;;;7678793;22;80490;-54
2023/09/26 13:42:20;;;;;;;9.38;5.80;;;25.50;74.90;;;;;;7678056;22;80909;-56
2023/09/26 13:45:20;;;;;;;6.07;5.47;;;25.50;74.90;;;;;;7678576;22;81094;-55
2023/09/26 13:48:21;;;;;;;5.75;5.20;;;25.50;75.00;;;;;;7678331;22;80738;-55
2023/09/26 13:51:21;;;;;;;8.20;5.43;;;25.50;74.80;;;;;;7678908;22;80486;-50
2023/09/26 13:54:22;;;;;;;6.30;5.43;;;25.50;75.30;;;;;;7678304;22;80383;-55
2023/09/26 13:57:22;;;;;;;7.88;5.40;;;25.50;74.60;;;;;;7678575;22;80433;-56
2023/09/26 14:00:23;;;;;;;7.40;5.38;;;25.50;74.90;;;;;;7677652;22;80836;-58
2023/09/26 14:03:24;;;;;;;5.45;4.93;;;25.50;74.70;;;;;;7678886;22;80338;-54
2023/09/26 14:06:25;;;;;;;7.38;5.55;;;25.50;74.70;;;;;;7671362;22;80376;-59
2023/09/26 14:09:26;;;;;;;6.53;5.15;;;25.40;75.10;;;;;;7671187;22;81745;-59
2023/09/26 14:12:26;;;;;;;8.02;6.20;;;25.50;74.60;;;;;;7670308;22;80106;-59
2023/09/26 14:15:27;;;;;;;5.53;4.85;;;25.40;74.60;;;;;;7676869;22;80760;-59
2023/09/26 14:18:27;;;;;;;9.82;5.53;;;25.40;74.90;;;;;;7675129;22;80289;-59
2023/09/26 14:21:28;;;;;;;10.25;5.53;;;25.50;75.50;;;;;;7676976;22;81351;-58
2023/09/26 14:24:28;;;;;;;18.08;6.28;;;25.50;75.60;;;;;;7672227;22;82554;-58
2023/09/26 14:27:29;;;;;;;12.90;5.78;;;25.50;75.30;;;;;;7670990;22;81012;-57
2023/09/26 14:30:29;;;;;;;15.65;6.07;;;25.50;76.10;;;;;;7678313;22;80795;-59
2023/09/26 14:33:30;;;;;;;15.32;7.13;;;25.60;76.30;;;;;;7673179;22;80177;-58
2023/09/26 14:36:30;;;;;;;13.98;7.30;;;25.50;75.90;;;;;;7674323;22;81352;-58
2023/09/26 14:39:31;;;;;;;13.90;7.32;;;25.50;75.40;;;;;;7676152;22;80895;-58
2023/09/26 14:42:31;;;;;;;10.55;7.18;;;25.50;75.30;;;;;;7674576;22;81118;-58
2023/09/26 14:45:32;;;;;;;11.27;7.65;;;25.50;75.30;;;;;;7674318;22;80321;-57
2023/09/26 14:48:33;;;;;;;11.60;7.70;;;25.50;75.30;;;;;;7675386;22;81114;-52
2023/09/26 14:51:33;;;;;;;20.45;8.70;;;25.50;75.00;;;;;;7676499;22;81003;-51
2023/09/26 14:54:34;;;;;;;16.85;8.13;;;25.60;75.20;;;;;;7678213;22;80440;-51
2023/09/26 14:57:34;;;;;;;12.60;8.55;;;25.60;75.30;;;;;;7676920;22;80461;-52
2023/09/26 15:00:35;;;;;;;14.95;8.98;;;25.50;75.10;;;;;;7678239;22;80159;-51
2023/09/26 15:03:35;;;;;;;13.57;8.55;;;25.50;75.10;;;;;;7677280;22;81840;-53
2023/09/26 15:06:37;;;;;;;13.13;9.00;;;25.50;75.10;;;;;;7676903;22;80719;-56
2023/09/26 15:09:37;;;;;;;19.02;9.45;;;25.50;75.00;;;;;;7677759;22;80903;-57
2023/09/26 15:12:38;;;;;;;22.80;10.15;;;25.40;75.00;;;;;;7677358;22;80190;-57
2023/09/26 15:15:38;;;;;;;16.80;9.48;;;25.40;75.00;;;;;;7674265;22;83331;-57
2023/09/26 15:18:39;;;;;;;12.48;9.38;;;25.30;75.00;;;;;;7677866;22;87137;-56
2023/09/26 15:21:39;;;;;;;12.60;9.27;;;25.30;75.00;;;;;;7677551;22;81504;-57
2023/09/26 15:24:40;;;;;;;15.10;9.65;;;25.30;75.20;;;;;;7679390;22;79970;-53
2023/09/26 15:27:40;;;;;;;18.83;10.48;;;25.30;75.20;;;;;;7679417;22;80107;-54
2023/09/26 15:30:41;;;;;;;15.32;9.73;;;25.20;75.20;;;;;;7674269;22;82992;-50
2023/09/26 15:33:42;;;;;;;11.52;9.35;;;25.20;75.30;;;;;;7678965;22;81976;-50